Redwood City, CA (94065)

8:40 PM PST on February 09, 2016 (GMT -0800)
Redwood Shores | | Change Station
CLOSE
Current Station
Personal Weather Station
Location: Redwood City, CA
Elevation: 5 ft
Nearby Weather Stations

Elev 5 ft 37.53 °N, 122.25 °W | Updated 4 seconds ago

Mostly Cloudy
Mostly Cloudy
58.6 °F
Feels Like 58.6 °F
N
0.0
Wind Variable Wind from East
Gusts 0.0 mph

Today
High -- | Low -- °F
--% Chance of Precip.
Yesterday
High -- | Low -- °F
Precip. -- in
Pressure 30.18 in
Visibility 10.0 miles
Clouds Mostly Cloudy 20000 ft
Dew Point 49 °F
Humidity 69%
Rainfall 0.00 in
Snow Depth Not available.
7:05 AM 5:41 PM
Waxing Crescent, 3% visible
METAR KSQL 100350Z VRB03KT 10SM BKN200 17/10 A3018
Pressure 30.18 in
Visibility 10.0 miles
Clouds Mostly Cloudy 20000 ft
Dew Point 49 °F
Humidity 69%
Rainfall 0.00 in
Snow Depth Not available.
7:05 AM 5:41 PM
Waxing Crescent, 3% visible
METAR KSQL 100350Z VRB03KT 10SM BKN200 17/10 A3018

10-Day Weather Forecast

Almanac

Astronomy

Feb. 09, 2016 Rise Set
Actual Time
Civil Twilight
Nautical Twilight
Astronomical Twilight
Moon
Length of Visible Light
Length of Day
Tomorrow will be .
, % of the Moon is Illuminated

Today's Extremes

State Highs State Lows

Community

WunderPhotos

Upload Photos

1,891,805 photos uploaded!

WunderBlog® & News

Nearby

Air Quality

  Air Quality AQ Index Pollutant
Not available.

Snow Depth

Station Depth Elevation

Earthquake Activity

City Distance Mag. Time & Date
Minimum magnitude displayed is 2.5.

Coastal Water Temperatures

Place Temperature

Stations

Nearby Weather Stations

Station Location Temp. Windchill Dew Point Humidity Wind Precip. Elev Updated Type
                   

Watches & Warnings

There are currently no watches in effect.